createdAt,value
2022-10-11T00:01:23.488Z,12.37
2022-10-11T00:03:50.217Z,12.35
2022-10-11T00:06:17.112Z,12.28
2022-10-11T00:08:43.707Z,12.35
2022-10-11T00:11:10.566Z,12.28
2022-10-11T00:13:37.152Z,12.28
2022-10-11T00:16:10.734Z,12.33
2022-10-11T00:18:37.979Z,12.32
2022-10-11T00:21:07.446Z,12.26
2022-10-11T00:23:34.416Z,12.16
2022-10-11T00:26:03.800Z,12.12
2022-10-11T00:28:33.545Z,12.03
2022-10-11T00:31:00.637Z,12.05
2022-10-11T00:33:27.497Z,12.16
2022-10-11T00:35:54.201Z,12.18
2022-10-11T00:38:21.827Z,12.22
2022-10-11T00:40:48.555Z,12.24
2022-10-11T00:43:21.349Z,12.22
2022-10-11T00:45:57.199Z,12.09
2022-10-11T00:48:27.664Z,12.09
2022-10-11T00:50:55.912Z,12.00
2022-10-11T00:53:22.927Z,12.03
2022-10-11T00:55:57.455Z,12.09
2022-10-11T00:58:24.397Z,12.16
2022-10-11T01:00:51.500Z,12.09
2022-10-11T01:03:20.274Z,12.09
2022-10-11T01:05:47.441Z,11.99
2022-10-11T01:08:14.122Z,12.00
2022-10-11T01:10:40.887Z,11.96
2022-10-11T01:13:22.895Z,11.97
2022-10-11T01:15:57.617Z,12.00
2022-10-11T01:18:33.288Z,12.04
2022-10-11T01:21:15.878Z,12.07
2022-10-11T01:24:04.678Z,12.09
2022-10-11T01:26:55.487Z,12.07
2022-10-11T01:29:40.246Z,12.14
2022-10-11T01:32:17.470Z,12.12
2022-10-11T01:35:03.998Z,12.11
2022-10-11T01:37:34.977Z,12.13
2022-10-11T01:40:08.157Z,12.11
2022-10-11T01:42:36.927Z,12.10
2022-10-11T01:45:04.737Z,12.13
2022-10-11T01:47:31.450Z,11.98
2022-10-11T01:50:00.935Z,12.01
2022-10-11T01:52:31.027Z,11.99
2022-10-11T01:55:23.735Z,11.91
2022-10-11T01:58:09.979Z,11.72
2022-10-11T02:01:14.474Z,11.85
2022-10-11T02:03:57.817Z,11.92
2022-10-11T02:06:34.717Z,11.89
2022-10-11T02:09:09.490Z,11.96
2022-10-11T02:11:36.748Z,11.97
2022-10-11T02:14:08.567Z,11.89
2022-10-11T02:16:57.858Z,11.91
2022-10-11T02:19:28.949Z,11.95
2022-10-11T02:22:00.918Z,11.99
2022-10-11T02:24:31.459Z,11.97
2022-10-11T02:26:59.848Z,11.86
2022-10-11T02:29:28.419Z,11.94
2022-10-11T02:31:57.407Z,11.96
2022-10-11T02:34:32.530Z,11.92
2022-10-11T02:37:05.478Z,11.96
2022-10-11T02:39:38.529Z,11.90
2022-10-11T02:42:08.957Z,11.89
2022-10-11T02:44:41.008Z,11.84
2022-10-11T02:47:08.166Z,11.79
2022-10-11T02:49:35.310Z,11.85
2022-10-11T02:52:04.916Z,11.91
2022-10-11T02:54:31.677Z,11.83
2022-10-11T02:56:58.447Z,11.82
2022-10-11T02:59:25.208Z,11.91
2022-10-11T03:01:51.974Z,12.00
2022-10-11T03:04:18.674Z,11.97
2022-10-11T03:06:45.425Z,11.93
2022-10-11T03:09:12.127Z,11.94
2022-10-11T03:11:38.837Z,11.96
2022-10-11T03:14:05.627Z,11.97
2022-10-11T03:16:32.340Z,11.96
2022-10-11T03:18:59.000Z,12.01
2022-10-11T03:21:25.816Z,12.02
2022-10-11T03:23:52.640Z,12.04
2022-10-11T03:26:19.337Z,11.95
2022-10-11T03:28:46.119Z,11.87
2022-10-11T03:31:12.856Z,11.77
2022-10-11T03:33:39.523Z,11.76
2022-10-11T03:36:06.891Z,11.79
2022-10-11T03:38:33.947Z,11.83
2022-10-11T03:41:00.686Z,11.78
2022-10-11T03:43:27.522Z,11.66
2022-10-11T03:45:54.238Z,11.61
2022-10-11T03:48:20.899Z,11.59
2022-10-11T03:50:48.878Z,11.61
2022-10-11T03:53:15.634Z,11.72
2022-10-11T03:55:42.408Z,11.65
2022-10-11T03:58:09.457Z,11.66
2022-10-11T04:00:36.367Z,11.76
2022-10-11T04:03:05.847Z,11.77
2022-10-11T04:05:32.659Z,11.75
2022-10-11T04:07:59.397Z,11.74
2022-10-11T04:10:26.063Z,11.74
2022-10-11T04:12:52.796Z,11.76
2022-10-11T04:15:19.687Z,11.79
2022-10-11T04:17:46.320Z,11.78
2022-10-11T04:20:12.968Z,11.81
2022-10-11T04:22:39.708Z,11.85
2022-10-11T04:25:08.048Z,11.89
2022-10-11T04:27:34.875Z,11.90
2022-10-11T04:30:01.723Z,11.87
2022-10-11T04:32:28.368Z,11.89
2022-10-11T04:34:54.980Z,11.82
2022-10-11T04:37:21.739Z,11.87
2022-10-11T04:39:48.322Z,11.86
2022-10-11T04:42:14.914Z,11.88
2022-10-11T04:44:41.508Z,11.88
2022-10-11T04:47:08.205Z,11.86
2022-10-11T04:49:34.868Z,11.87
2022-10-11T04:52:01.588Z,11.89
2022-10-11T04:54:28.201Z,11.81
2022-10-11T04:56:54.923Z,11.78
2022-10-11T04:59:21.580Z,11.75
2022-10-11T05:01:48.369Z,11.76
2022-10-11T05:04:15.123Z,11.70
2022-10-11T05:06:41.879Z,11.72
2022-10-11T05:09:08.698Z,11.75
2022-10-11T05:11:35.477Z,11.84
2022-10-11T05:14:02.226Z,11.86
2022-10-11T05:16:28.981Z,11.82
2022-10-11T05:18:55.636Z,11.87
2022-10-11T05:21:25.097Z,11.80
2022-10-11T05:23:53.357Z,11.63
2022-10-11T05:26:20.851Z,11.69
2022-10-11T05:28:48.179Z,11.67
2022-10-11T05:31:16.099Z,11.75
2022-10-11T05:33:43.135Z,11.82
2022-10-11T05:36:10.548Z,11.75
2022-10-11T05:38:38.255Z,11.63
2022-10-11T05:41:05.509Z,11.75
2022-10-11T05:43:32.691Z,11.81
2022-10-11T05:45:59.476Z,11.78
2022-10-11T05:48:26.926Z,11.83
2022-10-11T05:50:59.265Z,11.89
2022-10-11T05:53:26.347Z,11.84
2022-10-11T05:55:53.088Z,11.85
2022-10-11T05:58:19.856Z,11.85
2022-10-11T06:00:46.659Z,11.85
2022-10-11T06:03:13.850Z,11.84
2022-10-11T06:05:40.629Z,11.77
2022-10-11T06:08:11.203Z,11.77
2022-10-11T06:10:38.565Z,11.76
2022-10-11T06:13:05.756Z,11.74
2022-10-11T06:15:32.728Z,11.85
2022-10-11T06:17:59.535Z,11.88
2022-10-11T06:20:27.127Z,11.89
2022-10-11T06:22:53.908Z,11.82
2022-10-11T06:25:20.780Z,11.91
2022-10-11T06:27:47.448Z,11.99
2022-10-11T06:30:14.828Z,12.03
2022-10-11T06:32:41.548Z,12.02
2022-10-11T06:35:08.717Z,11.95
2022-10-11T06:37:35.642Z,12.05
2022-10-11T06:40:02.401Z,12.09
2022-10-11T06:42:29.185Z,12.14
2022-10-11T06:44:55.895Z,12.21
2022-10-11T06:47:22.934Z,12.24
2022-10-11T06:49:49.617Z,12.27
2022-10-11T06:52:16.402Z,12.23
2022-10-11T06:54:45.117Z,12.25
2022-10-11T06:57:12.285Z,12.23
2022-10-11T06:59:39.054Z,12.21
2022-10-11T07:02:05.797Z,12.24
2022-10-11T07:04:34.062Z,12.14
2022-10-11T07:07:01.092Z,12.10
2022-10-11T07:09:27.825Z,11.97
2022-10-11T07:11:54.549Z,11.94
2022-10-11T07:14:21.438Z,12.09
2022-10-11T07:16:48.289Z,12.07
2022-10-11T07:19:15.113Z,12.12
2022-10-11T07:21:41.934Z,12.20
2022-10-11T07:24:08.797Z,12.17
2022-10-11T07:26:38.731Z,12.09
2022-10-11T07:29:07.264Z,12.20
2022-10-11T07:31:34.148Z,12.29
2022-10-11T07:34:01.010Z,12.17
2022-10-11T07:36:27.795Z,12.23
2022-10-11T07:38:54.487Z,12.28
2022-10-11T07:41:21.388Z,12.30
2022-10-11T07:43:49.794Z,12.24
2022-10-11T07:46:18.047Z,12.28
2022-10-11T07:48:44.857Z,12.44
2022-10-11T07:51:15.487Z,12.54
2022-10-11T07:53:46.876Z,12.81
2022-10-11T07:56:15.898Z,13.15
2022-10-11T07:58:43.369Z,13.77
2022-10-11T08:01:11.164Z,14.33
2022-10-11T08:03:38.479Z,14.55
2022-10-11T08:06:07.794Z,14.97
2022-10-11T08:08:35.697Z,15.06
2022-10-11T08:11:02.469Z,15.08
2022-10-11T08:13:29.375Z,15.58
2022-10-11T08:15:56.953Z,14.82
2022-10-11T08:18:23.776Z,14.60
2022-10-11T08:20:50.517Z,14.55
2022-10-11T08:23:18.670Z,14.99
2022-10-11T08:25:47.148Z,15.81
2022-10-11T08:28:18.059Z,15.76
2022-10-11T08:30:52.790Z,15.52
2022-10-11T08:33:21.775Z,15.31
2022-10-11T08:35:49.250Z,15.41
2022-10-11T08:38:16.356Z,15.33
2022-10-11T08:40:50.917Z,15.80
2022-10-11T08:43:46.402Z,15.32
2022-10-11T08:46:14.438Z,15.47
2022-10-11T08:48:50.119Z,15.59
2022-10-11T08:51:22.827Z,15.77
2022-10-11T08:53:54.370Z,15.53
2022-10-11T08:56:21.359Z,15.59
2022-10-11T08:59:10.044Z,15.81
2022-10-11T09:01:38.836Z,15.04
2022-10-11T09:04:06.305Z,15.08
2022-10-11T09:06:50.884Z,15.28
2022-10-11T09:09:42.618Z,15.42
2022-10-11T09:12:30.873Z,15.11
2022-10-11T09:15:04.658Z,15.41
2022-10-11T09:17:59.209Z,15.55
2022-10-11T09:21:14.252Z,15.57
2022-10-11T09:24:03.911Z,16.31
2022-10-11T09:27:10.855Z,16.46
2022-10-11T09:29:40.469Z,16.23
2022-10-11T09:32:16.035Z,16.26
2022-10-11T09:34:43.566Z,16.23
2022-10-11T09:37:20.340Z,16.20
2022-10-11T09:40:10.176Z,16.06
2022-10-11T09:42:36.894Z,15.98
2022-10-11T09:45:14.578Z,16.00
2022-10-11T09:47:41.436Z,15.93
2022-10-11T09:50:16.731Z,15.66
2022-10-11T09:52:54.850Z,15.67
2022-10-11T09:55:36.059Z,15.69
2022-10-11T09:58:04.861Z,15.71
2022-10-11T10:00:33.946Z,15.78
2022-10-11T10:03:03.075Z,15.84
2022-10-11T10:05:33.015Z,15.57
2022-10-11T10:08:09.312Z,15.65
2022-10-11T10:10:43.018Z,15.68
2022-10-11T10:13:23.378Z,15.64
2022-10-11T10:15:53.736Z,15.86
2022-10-11T10:18:28.477Z,15.76
2022-10-11T10:20:57.409Z,15.76
2022-10-11T10:23:28.160Z,15.79
2022-10-11T10:26:35.566Z,15.90
2022-10-11T10:29:11.160Z,16.14
2022-10-11T10:32:13.378Z,16.03
2022-10-11T10:34:47.906Z,16.44
2022-10-11T10:37:32.138Z,17.61
2022-10-11T10:40:04.027Z,17.76
2022-10-11T10:42:30.804Z,17.64
2022-10-11T10:44:58.765Z,17.79
2022-10-11T10:48:13.447Z,17.40
2022-10-11T10:50:55.152Z,17.16
2022-10-11T10:53:29.622Z,17.36
2022-10-11T10:56:19.545Z,17.58
2022-10-11T10:59:16.776Z,17.72
2022-10-11T11:02:11.167Z,17.41
2022-10-11T11:05:02.187Z,17.97
2022-10-11T11:08:05.018Z,17.76
2022-10-11T11:10:42.541Z,17.78
2022-10-11T11:13:44.681Z,17.73
2022-10-11T11:16:25.306Z,18.11
2022-10-11T11:19:04.650Z,18.05
2022-10-11T11:21:31.830Z,17.98
2022-10-11T11:24:10.669Z,17.71
2022-10-11T11:26:57.410Z,17.10
2022-10-11T11:29:50.797Z,17.42
2022-10-11T11:32:46.039Z,17.37
2022-10-11T11:35:37.266Z,17.64
2022-10-11T11:38:53.571Z,18.19
2022-10-11T11:41:27.055Z,18.29
2022-10-11T11:43:59.336Z,18.29
2022-10-11T11:46:34.496Z,18.33
2022-10-11T11:49:12.134Z,18.63
2022-10-11T11:51:43.539Z,18.23
2022-10-11T11:54:50.609Z,18.69
2022-10-11T11:57:26.294Z,19.22
2022-10-11T11:59:59.678Z,19.46
2022-10-11T12:02:46.850Z,19.56
2022-10-11T12:05:17.296Z,19.91
2022-10-11T12:07:49.134Z,20.26
2022-10-11T12:10:53.242Z,20.22
2022-10-11T12:13:41.033Z,20.64
2022-10-11T12:16:09.934Z,20.66
2022-10-11T12:18:47.445Z,20.66
2022-10-11T12:21:22.716Z,20.84
2022-10-11T12:23:54.553Z,20.65
2022-10-11T12:26:36.135Z,20.23
2022-10-11T12:29:24.662Z,19.66
2022-10-11T12:32:01.118Z,19.19
2022-10-11T12:34:41.612Z,19.19
2022-10-11T12:37:31.334Z,19.25
2022-10-11T12:39:59.257Z,19.13
2022-10-11T12:42:30.112Z,19.12
2022-10-11T12:45:20.013Z,18.99
2022-10-11T12:48:11.715Z,18.83
2022-10-11T12:50:46.759Z,18.84
2022-10-11T12:54:24.942Z,18.61
2022-10-11T12:57:12.059Z,18.37
2022-10-11T12:59:44.993Z,18.35
2022-10-11T13:02:42.721Z,18.34
2022-10-11T13:05:21.070Z,18.15
2022-10-11T13:07:48.224Z,18.03
2022-10-11T13:10:16.934Z,17.92
2022-10-11T13:12:46.405Z,17.83
2022-10-11T13:15:16.085Z,17.56
2022-10-11T13:17:43.464Z,17.46
2022-10-11T13:20:18.652Z,17.45
2022-10-11T13:22:51.204Z,17.30
2022-10-11T13:25:21.372Z,17.28
2022-10-11T13:27:49.715Z,17.42
2022-10-11T13:30:20.295Z,17.42
2022-10-11T13:32:47.193Z,17.72
2022-10-11T13:35:30.142Z,17.70
2022-10-11T13:37:57.012Z,17.75
2022-10-11T13:40:24.105Z,17.63
2022-10-11T13:42:52.552Z,17.59
2022-10-11T13:45:25.215Z,17.56
2022-10-11T13:47:53.288Z,17.61
2022-10-11T13:50:30.417Z,17.49
2022-10-11T13:53:01.505Z,17.47
2022-10-11T13:55:47.705Z,17.31
2022-10-11T13:58:45.574Z,17.25
2022-10-11T14:01:18.788Z,17.28
2022-10-11T14:03:59.444Z,17.25
2022-10-11T14:06:48.535Z,17.31
2022-10-11T14:09:22.510Z,17.31
2022-10-11T14:11:49.982Z,17.28
2022-10-11T14:14:35.432Z,17.20
2022-10-11T14:17:11.034Z,17.12
2022-10-11T14:19:38.185Z,17.18
2022-10-11T14:22:06.212Z,17.17
2022-10-11T14:24:33.057Z,17.15
2022-10-11T14:27:00.106Z,17.23
2022-10-11T14:29:35.334Z,17.18
2022-10-11T14:32:07.174Z,17.25
2022-10-11T14:34:34.724Z,17.18
2022-10-11T14:37:01.663Z,17.17
2022-10-11T14:39:30.495Z,17.18
2022-10-11T14:41:57.855Z,17.03
2022-10-11T14:44:24.766Z,17.03
2022-10-11T14:46:54.357Z,16.87
2022-10-11T14:49:26.829Z,16.60
2022-10-11T14:51:54.984Z,16.57
2022-10-11T14:54:24.305Z,16.41
2022-10-11T14:56:52.686Z,16.25
2022-10-11T14:59:22.892Z,16.14
2022-10-11T15:01:52.016Z,16.06
2022-10-11T15:04:24.734Z,15.96
2022-10-11T15:06:54.401Z,15.92
2022-10-11T15:09:21.697Z,15.83
2022-10-11T15:11:52.966Z,15.78
2022-10-11T15:14:19.773Z,15.71
2022-10-11T15:16:46.494Z,15.69
2022-10-11T15:19:20.362Z,15.52
2022-10-11T15:21:47.404Z,15.41
2022-10-11T15:24:14.413Z,15.36
2022-10-11T15:26:42.195Z,15.46
2022-10-11T15:29:11.766Z,15.34
2022-10-11T15:31:39.626Z,15.20
2022-10-11T15:34:06.574Z,15.27
2022-10-11T15:36:33.424Z,15.16
2022-10-11T15:39:01.699Z,15.03
2022-10-11T15:41:28.794Z,14.99
2022-10-11T15:43:55.692Z,15.02
2022-10-11T15:46:23.262Z,15.00
2022-10-11T15:48:50.994Z,14.95
2022-10-11T15:51:17.894Z,14.94
2022-10-11T15:53:44.732Z,14.90
2022-10-11T15:56:15.963Z,14.87
2022-10-11T15:58:43.214Z,14.80
2022-10-11T16:01:15.020Z,14.64
2022-10-11T16:03:42.242Z,14.62
2022-10-11T16:06:09.889Z,14.58
2022-10-11T16:08:37.434Z,14.46
2022-10-11T16:11:05.896Z,14.42
2022-10-11T16:13:33.044Z,14.28
2022-10-11T16:16:04.928Z,14.19
2022-10-11T16:18:35.407Z,14.16
2022-10-11T16:21:07.146Z,14.14
2022-10-11T16:23:34.266Z,14.09
2022-10-11T16:26:03.251Z,14.06
2022-10-11T16:28:30.950Z,13.99
2022-10-11T16:30:57.832Z,13.94
2022-10-11T16:33:25.160Z,13.86
2022-10-11T16:35:52.174Z,13.76
2022-10-11T16:38:18.984Z,13.73
2022-10-11T16:40:45.777Z,13.79
2022-10-11T16:43:12.412Z,13.79
2022-10-11T16:45:39.273Z,13.76
2022-10-11T16:48:06.397Z,13.65
2022-10-11T16:50:38.369Z,13.35
2022-10-11T16:53:06.230Z,13.22
2022-10-11T16:55:32.934Z,13.38
2022-10-11T16:57:59.743Z,13.49
2022-10-11T17:00:26.619Z,13.45
2022-10-11T17:02:53.326Z,13.41
2022-10-11T17:05:20.000Z,13.55
2022-10-11T17:07:46.705Z,13.48
2022-10-11T17:10:13.404Z,13.40
2022-10-11T17:12:40.269Z,13.38
2022-10-11T17:15:07.722Z,13.27
2022-10-11T17:17:34.612Z,13.32
2022-10-11T17:20:02.437Z,13.26
2022-10-11T17:22:29.303Z,13.32
2022-10-11T17:24:55.963Z,13.31
2022-10-11T17:27:26.479Z,13.28
2022-10-11T17:29:54.254Z,13.18
2022-10-11T17:32:25.771Z,13.10
2022-10-11T17:34:54.358Z,13.09
2022-10-11T17:37:24.265Z,13.05
2022-10-11T17:39:53.404Z,13.05
2022-10-11T17:42:30.752Z,13.01
2022-10-11T17:45:02.444Z,13.00
2022-10-11T17:47:30.350Z,12.98
2022-10-11T17:50:00.363Z,12.97
2022-10-11T17:52:30.025Z,12.80
2022-10-11T17:54:56.745Z,12.84
2022-10-11T17:57:23.504Z,12.73
2022-10-11T17:59:50.324Z,12.76
2022-10-11T18:02:17.292Z,12.76
2022-10-11T18:04:44.134Z,12.70
2022-10-11T18:07:10.796Z,12.77
2022-10-11T18:09:37.762Z,12.79
2022-10-11T18:12:04.640Z,12.68
2022-10-11T18:14:31.642Z,12.57
2022-10-11T18:16:58.405Z,12.59
2022-10-11T18:19:25.168Z,12.64
2022-10-11T18:21:51.874Z,12.61
2022-10-11T18:24:18.646Z,12.55
2022-10-11T18:26:46.661Z,12.68
2022-10-11T18:29:13.623Z,12.56
2022-10-11T18:31:41.274Z,12.47
2022-10-11T18:34:11.398Z,12.36
2022-10-11T18:36:39.488Z,12.47
2022-10-11T18:39:08.397Z,12.42
2022-10-11T18:41:35.841Z,12.40
2022-10-11T18:44:05.553Z,12.39
2022-10-11T18:46:32.692Z,12.39
2022-10-11T18:49:02.140Z,12.25
2022-10-11T18:51:32.085Z,12.23
2022-10-11T18:54:00.082Z,12.19
2022-10-11T18:56:28.907Z,12.27
2022-10-11T18:58:56.966Z,12.22
2022-10-11T19:01:26.397Z,12.17
2022-10-11T19:03:56.894Z,12.11
2022-10-11T19:06:26.984Z,12.17
2022-10-11T19:09:06.361Z,12.16
2022-10-11T19:11:33.556Z,12.23
2022-10-11T19:14:07.051Z,12.20
2022-10-11T19:16:35.870Z,12.18
2022-10-11T19:19:03.044Z,12.28
2022-10-11T19:21:30.042Z,12.24
2022-10-11T19:23:57.275Z,12.13
2022-10-11T19:26:28.833Z,12.05
2022-10-11T19:29:07.706Z,12.07
2022-10-11T19:31:36.177Z,12.05
2022-10-11T19:34:03.514Z,11.96
2022-10-11T19:36:35.509Z,11.98
2022-10-11T19:39:04.791Z,11.98
2022-10-11T19:41:31.724Z,12.01
2022-10-11T19:43:58.691Z,11.88
2022-10-11T19:46:50.441Z,11.84
2022-10-11T19:49:14.142Z,11.73
2022-10-11T19:51:40.752Z,11.73
2022-10-11T19:54:11.352Z,11.83
2022-10-11T19:56:38.252Z,11.84
2022-10-11T19:59:08.453Z,11.81
2022-10-11T20:01:36.416Z,11.73
2022-10-11T20:04:06.332Z,11.70
2022-10-11T20:06:38.315Z,11.67
2022-10-11T20:09:28.601Z,11.61
2022-10-11T20:11:56.588Z,11.58
2022-10-11T20:14:23.383Z,11.62
2022-10-11T20:16:50.883Z,11.67
2022-10-11T20:19:17.643Z,11.59
2022-10-11T20:21:45.298Z,11.57
2022-10-11T20:24:11.969Z,11.68
2022-10-11T20:26:39.418Z,11.69
2022-10-11T20:29:06.650Z,11.67
2022-10-11T20:31:38.305Z,11.65
2022-10-11T20:34:07.452Z,11.58
2022-10-11T20:36:36.132Z,11.47
2022-10-11T20:39:04.463Z,11.43
2022-10-11T20:41:37.210Z,11.34
2022-10-11T20:44:04.683Z,11.29
2022-10-11T20:46:36.683Z,11.41
2022-10-11T20:49:08.409Z,11.29
2022-10-11T20:51:36.951Z,11.35
2022-10-11T20:54:04.748Z,11.47
2022-10-11T20:56:32.111Z,11.41
2022-10-11T20:58:59.031Z,11.36
2022-10-11T21:01:37.222Z,11.35
2022-10-11T21:04:04.971Z,11.32
2022-10-11T21:06:32.584Z,11.35
2022-10-11T21:09:00.153Z,11.38
2022-10-11T21:11:31.164Z,11.34
2022-10-11T21:14:02.545Z,11.39
2022-10-11T21:16:29.496Z,11.49
2022-10-11T21:18:57.858Z,11.38
2022-10-11T21:21:25.125Z,11.35
2022-10-11T21:24:00.156Z,11.23
2022-10-11T21:26:27.553Z,11.19
2022-10-11T21:28:54.391Z,11.16
2022-10-11T21:31:22.691Z,11.20
2022-10-11T21:33:49.357Z,11.20
2022-10-11T21:36:18.588Z,11.18
2022-10-11T21:38:45.240Z,11.26
2022-10-11T21:41:14.114Z,11.23
2022-10-11T21:43:40.853Z,11.18
2022-10-11T21:46:53.995Z,11.11
2022-10-11T21:49:16.560Z,10.92
2022-10-11T21:51:43.228Z,10.86
2022-10-11T21:54:09.905Z,10.90
2022-10-11T21:56:36.627Z,10.84
2022-10-11T21:59:06.576Z,10.93
2022-10-11T22:01:36.986Z,10.81
2022-10-11T22:04:04.982Z,10.77
2022-10-11T22:06:31.586Z,10.73
2022-10-11T22:08:58.151Z,10.74
2022-10-11T22:11:24.737Z,10.73
2022-10-11T22:13:51.311Z,10.65
2022-10-11T22:16:18.012Z,10.67
2022-10-11T22:18:44.779Z,10.76
2022-10-11T22:21:16.910Z,10.75
2022-10-11T22:23:45.363Z,10.74
2022-10-11T22:26:14.424Z,10.62
2022-10-11T22:28:41.434Z,10.75
2022-10-11T22:31:09.766Z,10.73
2022-10-11T22:33:36.595Z,10.86
2022-10-11T22:36:05.931Z,10.88
2022-10-11T22:38:32.813Z,10.63
2022-10-11T22:40:59.421Z,10.70
2022-10-11T22:43:26.045Z,10.74
2022-10-11T22:45:52.655Z,10.76
2022-10-11T22:48:19.226Z,10.67
2022-10-11T22:50:45.842Z,10.74
2022-10-11T22:53:13.491Z,10.64
2022-10-11T22:55:40.520Z,10.63
2022-10-11T22:58:07.178Z,10.67
2022-10-11T23:00:34.275Z,10.67
2022-10-11T23:03:00.943Z,10.60
2022-10-11T23:05:27.627Z,10.68
2022-10-11T23:07:54.415Z,10.74
2022-10-11T23:10:21.281Z,10.72
2022-10-11T23:12:48.064Z,10.79
2022-10-11T23:15:15.414Z,10.76
2022-10-11T23:17:42.574Z,10.82
2022-10-11T23:20:09.764Z,10.84
2022-10-11T23:22:36.453Z,10.82
2022-10-11T23:25:03.305Z,10.75
2022-10-11T23:27:30.362Z,10.74
2022-10-11T23:29:57.093Z,10.60
2022-10-11T23:32:24.065Z,10.50
2022-10-11T23:34:51.734Z,10.51
2022-10-11T23:37:18.465Z,10.54
2022-10-11T23:39:45.626Z,10.38
2022-10-11T23:42:12.492Z,10.41
2022-10-11T23:44:39.258Z,10.39
2022-10-11T23:47:05.925Z,10.43
2022-10-11T23:49:32.567Z,10.46
2022-10-11T23:51:59.243Z,10.39
2022-10-11T23:54:26.200Z,10.49
2022-10-11T23:56:52.945Z,10.48
2022-10-11T23:59:19.722Z,10.44
